Weather at Ambanja Airport

Public forecast

Using degrees Celsius for public forecast. Weather courtesy of forecast.io.

Closest aviation weather report (METAR) to Ambanja Airport

Report is more than 6 hours old.

Closest report is Fascene Airport, 21.7 nm (40.3 km) NNW. Retrieved 2020/10/19 14:00 UTC (12 hours ago):

FMNN 191400Z 23006KT 9999 FEW020 29/// Q1010

Closest aviation forecast (TAF) to Ambanja Airport

Closest forecast is Fascene Airport, 21.7 nm (40.3 km) NNW. Retrieved 2020-10-20 00:39 UTC (2 hours ago):

TAF COR TAF COR FMNN 192337Z 2000/2024 VRB03KT 9999 SCT020 SCT040 BECMG 2010/2012 32013KT SCT020CB PROB30 TEMPO 2014/2018 4500 TSRA